Time;durP1;ratioP1;P1;durP2;ratioP2;P2;SDS_P1;SDS_P2;PMS_P1;PMS_P2;Temp;Humidity;BMP_temperature;BMP_pressure;BME280_temperature;BME280_humidity;BME280_pressure;Samples;Min_cycle;Max_cycle;Signal;HPM_P1;HPM_P2
2023/08/31 00:00:32;;;;;;;9.90;5.22;;;18.40;77.80;;;;;;5136533;28;20020;-66
2023/08/31 00:02:59;;;;;;;9.75;6.35;;;18.40;77.70;;;;;;5136124;28;20024;-66
2023/08/31 00:05:30;;;;;;;9.55;5.47;;;18.30;77.70;;;;;;5136107;27;20015;-66
2023/08/31 00:07:56;;;;;;;10.45;5.47;;;18.20;77.80;;;;;;5136532;27;20023;-66
2023/08/31 00:10:23;;;;;;;9.57;5.60;;;18.20;78.00;;;;;;5136197;27;20023;-66
2023/08/31 00:12:50;;;;;;;8.70;5.60;;;18.20;78.20;;;;;;5136058;27;20023;-66
2023/08/31 00:15:15;;;;;;;9.63;5.57;;;18.20;78.30;;;;;;5136108;27;20413;-66
2023/08/31 00:17:42;;;;;;;11.70;5.43;;;18.10;78.40;;;;;;5135846;28;20047;-66
2023/08/31 00:20:11;;;;;;;9.32;5.50;;;18.10;78.30;;;;;;5136571;27;20069;-66
2023/08/31 00:22:38;;;;;;;7.85;5.22;;;18.10;78.40;;;;;;5135699;27;20460;-66
2023/08/31 00:25:08;;;;;;;11.55;5.20;;;18.10;78.40;;;;;;5136238;28;20076;-66
2023/08/31 00:27:37;;;;;;;10.50;5.38;;;18.10;78.50;;;;;;5135770;27;20031;-66
2023/08/31 00:30:07;;;;;;;13.07;5.15;;;18.00;78.50;;;;;;5136012;27;20367;-67
2023/08/31 00:32:34;;;;;;;9.00;4.78;;;17.90;78.70;;;;;;5135446;27;20464;-67
2023/08/31 00:35:00;;;;;;;8.77;4.85;;;17.90;78.80;;;;;;5135675;28;20037;-67
2023/08/31 00:37:26;;;;;;;10.43;4.78;;;17.90;78.90;;;;;;5136855;27;20034;-67
2023/08/31 00:39:52;;;;;;;9.00;4.57;;;17.90;78.90;;;;;;5140037;27;20019;-66
2023/08/31 00:42:18;;;;;;;8.07;4.57;;;17.90;78.90;;;;;;5139374;27;20023;-67
2023/08/31 00:44:47;;;;;;;8.57;4.35;;;17.90;79.00;;;;;;5138375;27;20078;-66
2023/08/31 00:47:17;;;;;;;7.30;4.72;;;17.90;79.10;;;;;;5139677;27;20023;-66
2023/08/31 00:49:43;;;;;;;6.95;4.32;;;17.90;79.00;;;;;;5139875;27;20026;-67
2023/08/31 00:52:09;;;;;;;7.13;4.88;;;17.80;79.20;;;;;;5139213;27;20023;-67
2023/08/31 00:54:36;;;;;;;7.13;4.40;;;17.90;79.10;;;;;;5139515;27;20031;-67
2023/08/31 00:57:03;;;;;;;8.85;4.68;;;17.80;79.10;;;;;;5139474;27;20056;-67
2023/08/31 00:59:30;;;;;;;9.63;4.60;;;17.80;79.10;;;;;;5139095;27;20031;-67
2023/08/31 01:02:22;;;;;;;10.18;4.93;;;17.80;79.30;;;;;;5139079;27;20019;-67
2023/08/31 01:04:54;;;;;;;8.27;4.32;;;17.70;79.60;;;;;;5139252;27;20031;-66
2023/08/31 01:07:52;;;;;;;8.55;4.28;;;17.70;79.30;;;;;;5138935;27;20421;-66
2023/08/31 01:10:43;;;;;;;10.85;4.40;;;17.60;79.50;;;;;;5138947;27;20110;-66
2023/08/31 01:13:19;;;;;;;7.00;4.28;;;17.60;79.60;;;;;;5139144;27;20088;-67
2023/08/31 01:15:50;;;;;;;6.68;3.88;;;17.50;79.80;;;;;;5139145;27;20110;-67
2023/08/31 01:18:21;;;;;;;5.68;3.80;;;17.50;79.80;;;;;;5138247;27;20015;-67
2023/08/31 01:20:55;;;;;;;6.35;3.83;;;17.40;79.60;;;;;;5138737;27;20386;-67
2023/08/31 01:23:26;;;;;;;10.35;4.25;;;17.50;79.80;;;;;;5138848;27;20395;-67
2023/08/31 01:25:53;;;;;;;6.55;3.47;;;17.40;79.80;;;;;;5138925;27;20054;-67
2023/08/31 01:28:19;;;;;;;6.50;4.13;;;17.40;79.90;;;;;;5138832;27;20015;-67
2023/08/31 01:30:44;;;;;;;6.70;3.30;;;17.40;80.10;;;;;;5138803;27;20029;-67
2023/08/31 01:33:12;;;;;;;6.07;3.80;;;17.40;80.10;;;;;;5137394;27;20096;-67
2023/08/31 01:35:46;;;;;;;8.90;4.28;;;17.40;80.10;;;;;;5138759;27;20139;-67
2023/08/31 01:38:19;;;;;;;6.18;3.75;;;17.40;80.00;;;;;;5138729;27;20428;-67
2023/08/31 01:40:58;;;;;;;5.13;3.67;;;17.40;80.10;;;;;;5138630;27;20452;-67
2023/08/31 01:43:25;;;;;;;6.43;4.10;;;17.40;80.20;;;;;;5138321;27;20098;-67
2023/08/31 01:45:51;;;;;;;6.32;3.63;;;17.40;80.30;;;;;;5138540;27;20029;-67
2023/08/31 01:48:17;;;;;;;6.03;3.17;;;17.40;80.30;;;;;;5138184;27;20449;-67
2023/08/31 01:50:43;;;;;;;6.13;3.60;;;17.40;80.30;;;;;;5137556;27;20393;-67
2023/08/31 01:53:09;;;;;;;8.38;4.22;;;17.40;80.40;;;;;;5138109;27;20030;-67
2023/08/31 01:55:35;;;;;;;6.35;3.47;;;17.40;80.50;;;;;;5138596;27;20038;-67
2023/08/31 01:58:02;;;;;;;7.07;3.70;;;17.40;80.30;;;;;;5138002;27;20031;-67
2023/08/31 02:00:28;;;;;;;6.80;3.38;;;17.40;80.60;;;;;;5137898;27;20039;-67
2023/08/31 02:02:54;;;;;;;6.28;3.70;;;17.50;80.50;;;;;;5138533;27;20015;-67
2023/08/31 02:05:19;;;;;;;5.22;3.53;;;17.60;80.40;;;;;;5137807;27;20076;-67
2023/08/31 02:07:46;;;;;;;6.15;3.42;;;17.60;80.30;;;;;;5137836;27;20015;-67
2023/08/31 02:10:11;;;;;;;4.43;3.15;;;17.60;80.30;;;;;;5136776;27;20347;-67
2023/08/31 02:12:37;;;;;;;5.82;3.40;;;17.60;80.30;;;;;;5137847;27;20015;-67
2023/08/31 02:15:07;;;;;;;7.20;4.03;;;17.50;80.20;;;;;;5137632;27;20031;-67
2023/08/31 02:17:34;;;;;;;6.85;3.58;;;17.50;80.20;;;;;;5137897;27;20126;-67
2023/08/31 02:20:01;;;;;;;7.13;3.88;;;17.50;80.10;;;;;;5137586;27;20037;-67
2023/08/31 02:22:27;;;;;;;6.05;3.80;;;17.40;80.30;;;;;;5137778;27;20027;-67
2023/08/31 02:24:53;;;;;;;5.60;3.70;;;17.40;80.40;;;;;;5137645;27;20027;-67
2023/08/31 02:27:19;;;;;;;6.18;4.15;;;17.30;80.30;;;;;;5137453;27;20027;-67
2023/08/31 02:29:45;;;;;;;5.60;3.80;;;17.20;80.40;;;;;;5137408;27;20023;-67
2023/08/31 02:32:11;;;;;;;6.35;3.50;;;17.20;80.40;;;;;;5137296;27;21526;-67
2023/08/31 02:34:37;;;;;;;7.25;3.70;;;17.20;80.60;;;;;;5137600;27;20027;-67
2023/08/31 02:37:03;;;;;;;7.95;3.60;;;17.20;80.60;;;;;;5136553;27;20041;-67
2023/08/31 02:39:29;;;;;;;5.13;3.75;;;17.10;80.60;;;;;;5137937;27;20039;-67
2023/08/31 02:41:55;;;;;;;6.93;4.35;;;17.10;80.70;;;;;;5137427;27;20122;-67
2023/08/31 02:44:21;;;;;;;8.90;4.13;;;17.10;80.70;;;;;;5137565;27;20504;-67
2023/08/31 02:46:47;;;;;;;7.10;4.10;;;17.10;80.70;;;;;;5137696;27;20102;-67
2023/08/31 02:49:13;;;;;;;4.40;3.65;;;17.10;80.90;;;;;;5136972;27;20023;-67
2023/08/31 02:51:39;;;;;;;8.63;4.43;;;17.10;80.70;;;;;;5136950;27;20031;-67
2023/08/31 02:54:05;;;;;;;9.55;4.35;;;17.00;80.60;;;;;;5136891;27;20030;-67
2023/08/31 02:56:31;;;;;;;9.07;4.35;;;17.00;80.90;;;;;;5137416;27;20035;-67
2023/08/31 02:58:57;;;;;;;8.23;4.25;;;17.00;80.60;;;;;;5136834;27;20031;-67
2023/08/31 03:01:24;;;;;;;7.57;4.95;;;17.00;80.70;;;;;;5136486;27;20027;-66
2023/08/31 03:03:50;;;;;;;7.28;4.68;;;16.90;80.70;;;;;;5136878;27;20019;-66
2023/08/31 03:06:16;;;;;;;9.85;4.82;;;16.90;80.90;;;;;;5137248;27;20444;-67
2023/08/31 03:08:43;;;;;;;5.93;4.00;;;16.90;80.90;;;;;;5136640;27;20019;-66
2023/08/31 03:11:09;;;;;;;7.47;4.00;;;16.90;80.80;;;;;;5136855;27;20034;-67
2023/08/31 03:13:35;;;;;;;7.03;4.03;;;16.90;80.80;;;;;;5136498;27;20364;-67
2023/08/31 03:16:01;;;;;;;6.60;4.28;;;16.90;80.90;;;;;;5136853;27;20368;-67
2023/08/31 03:18:28;;;;;;;8.25;4.22;;;16.90;81.00;;;;;;5136500;27;20030;-67
2023/08/31 03:20:55;;;;;;;8.00;4.30;;;16.90;81.10;;;;;;5135872;27;20023;-67
2023/08/31 03:23:21;;;;;;;6.35;3.35;;;16.90;81.00;;;;;;5135692;27;20027;-67
2023/08/31 03:25:47;;;;;;;5.93;4.10;;;17.00;80.90;;;;;;5136725;27;20026;-67
2023/08/31 03:28:13;;;;;;;5.72;3.60;;;16.90;80.90;;;;;;5136396;27;20019;-67
2023/08/31 03:30:39;;;;;;;6.00;3.75;;;16.90;80.90;;;;;;5136374;27;20072;-67
2023/08/31 03:33:05;;;;;;;6.10;3.38;;;16.90;80.90;;;;;;5136021;27;20043;-67
2023/08/31 03:35:34;;;;;;;7.88;3.67;;;16.90;80.90;;;;;;5136580;27;20027;-67
2023/08/31 03:38:00;;;;;;;5.78;4.10;;;16.90;80.80;;;;;;5136256;27;20072;-66
2023/08/31 03:40:26;;;;;;;8.88;4.90;;;16.90;81.10;;;;;;5136150;27;20044;-66
2023/08/31 03:42:53;;;;;;;4.03;3.38;;;16.90;81.00;;;;;;5136433;27;20096;-66
2023/08/31 03:45:20;;;;;;;8.38;4.03;;;16.80;80.90;;;;;;5136052;28;20022;-66
2023/08/31 03:47:46;;;;;;;6.85;4.20;;;16.80;80.90;;;;;;5136438;27;20101;-66
2023/08/31 03:50:12;;;;;;;6.22;4.03;;;16.80;81.00;;;;;;5135139;28;20026;-67
2023/08/31 03:52:38;;;;;;;7.38;4.20;;;16.70;81.30;;;;;;5136034;28;20019;-67
2023/08/31 03:55:05;;;;;;;9.23;4.57;;;16.70;81.30;;;;;;5136296;28;20442;-67
2023/08/31 03:57:31;;;;;;;10.25;4.22;;;16.60;81.40;;;;;;5135976;27;20464;-67
2023/08/31 03:59:57;;;;;;;7.20;4.43;;;16.60;81.60;;;;;;5136039;27;20031;-67
2023/08/31 04:02:23;;;;;;;7.25;3.67;;;16.60;81.40;;;;;;5134966;28;20019;-66
2023/08/31 04:04:49;;;;;;;6.75;3.63;;;16.60;81.40;;;;;;5136439;28;20027;-66
2023/08/31 04:07:16;;;;;;;4.78;3.28;;;16.50;81.40;;;;;;5135965;28;20030;-66
2023/08/31 04:09:42;;;;;;;5.90;3.65;;;16.60;81.60;;;;;;5135919;28;20047;-67
2023/08/31 04:12:08;;;;;;;7.03;3.15;;;16.50;81.50;;;;;;5136268;27;20109;-66
2023/08/31 04:14:34;;;;;;;5.22;3.30;;;16.50;81.50;;;;;;5140279;27;20027;-66
2023/08/31 04:17:00;;;;;;;6.43;3.70;;;16.60;81.50;;;;;;5140542;27;20061;-65
2023/08/31 04:19:26;;;;;;;5.72;3.03;;;16.60;81.60;;;;;;5139943;27;20035;-66
2023/08/31 04:21:52;;;;;;;5.43;3.17;;;16.60;81.60;;;;;;5139809;27;20532;-67
2023/08/31 04:24:18;;;;;;;9.05;3.53;;;16.60;81.50;;;;;;5139766;27;20110;-67
2023/08/31 04:26:44;;;;;;;5.38;3.28;;;16.60;81.70;;;;;;5139808;27;20011;-67
2023/08/31 04:29:10;;;;;;;5.35;3.38;;;16.60;81.80;;;;;;5139952;27;20027;-66
2023/08/31 04:31:37;;;;;;;5.15;3.03;;;16.60;81.80;;;;;;5140221;27;20030;-66
2023/08/31 04:34:04;;;;;;;8.48;3.05;;;16.60;81.80;;;;;;5139401;27;20083;-66
2023/08/31 04:36:30;;;;;;;5.05;2.90;;;16.60;81.70;;;;;;5139876;27;20437;-67
2023/08/31 04:38:56;;;;;;;4.78;3.33;;;16.60;81.70;;;;;;5139546;27;20408;-66
2023/08/31 04:41:22;;;;;;;7.70;3.75;;;16.60;81.70;;;;;;5139782;27;20059;-66
2023/08/31 04:43:48;;;;;;;5.15;3.20;;;16.60;81.50;;;;;;5139846;27;20027;-66
2023/08/31 04:46:14;;;;;;;7.28;3.85;;;16.60;81.70;;;;;;5139411;27;20058;-66
2023/08/31 04:48:40;;;;;;;8.68;3.38;;;16.60;81.90;;;;;;5139348;27;20042;-66
2023/08/31 04:51:06;;;;;;;6.97;2.95;;;16.60;81.60;;;;;;5139342;27;20019;-66
2023/08/31 04:53:32;;;;;;;7.13;3.13;;;16.60;81.60;;;;;;5139208;27;20030;-66
2023/08/31 04:55:58;;;;;;;7.68;3.17;;;16.60;81.60;;;;;;5139574;27;20042;-67
2023/08/31 04:58:24;;;;;;;7.78;4.18;;;16.70;81.40;;;;;;5139236;27;20031;-66
2023/08/31 05:00:53;;;;;;;7.32;3.72;;;16.70;81.40;;;;;;5139299;27;20023;-66
2023/08/31 05:03:19;;;;;;;7.70;3.90;;;16.70;81.50;;;;;;5139076;27;20023;-66
2023/08/31 05:05:45;;;;;;;11.25;4.95;;;16.70;81.30;;;;;;5139089;27;20030;-67
2023/08/31 05:08:11;;;;;;;5.72;3.55;;;16.80;81.30;;;;;;5139040;27;20023;-67
2023/08/31 05:10:36;;;;;;;8.55;4.10;;;16.90;81.60;;;;;;5138975;27;20027;-67
2023/08/31 05:13:04;;;;;;;7.10;4.10;;;16.90;81.40;;;;;;5139407;27;20117;-67
2023/08/31 05:15:30;;;;;;;6.32;3.78;;;17.00;81.40;;;;;;5138835;27;20456;-67
2023/08/31 05:17:56;;;;;;;6.85;4.45;;;17.10;81.40;;;;;;5138817;27;20059;-68
2023/08/31 05:20:24;;;;;;;4.80;3.72;;;17.40;81.50;;;;;;5138771;27;20056;-68
2023/08/31 05:22:51;;;;;;;7.20;4.13;;;18.20;81.10;;;;;;5138890;27;20106;-67
2023/08/31 05:25:18;;;;;;;6.07;3.90;;;19.00;79.80;;;;;;5138171;27;20443;-67
2023/08/31 05:27:44;;;;;;;7.22;3.63;;;19.80;78.10;;;;;;5138598;27;20042;-67
2023/08/31 05:30:10;;;;;;;6.20;3.53;;;20.40;76.40;;;;;;5139144;27;20023;-67
2023/08/31 05:32:36;;;;;;;6.63;3.20;;;21.20;75.20;;;;;;5138451;27;20039;-65
2023/08/31 05:35:03;;;;;;;5.38;3.10;;;21.90;73.40;;;;;;5138819;27;20049;-65
2023/08/31 05:37:33;;;;;;;4.70;2.88;;;22.40;71.50;;;;;;5138435;27;20034;-66
2023/08/31 05:39:59;;;;;;;3.75;3.08;;;22.50;69.90;;;;;;5138352;27;20042;-65
2023/08/31 05:42:25;;;;;;;4.25;3.22;;;22.50;69.60;;;;;;5134076;27;20031;-65
2023/08/31 05:44:51;;;;;;;3.97;2.70;;;22.90;69.00;;;;;;5130587;27;20064;-65
2023/08/31 05:47:17;;;;;;;4.95;2.90;;;23.50;67.50;;;;;;5137146;27;20361;-65
2023/08/31 05:49:43;;;;;;;4.32;2.83;;;24.20;65.60;;;;;;5129825;27;20027;-65
2023/08/31 05:52:09;;;;;;;5.40;3.10;;;24.80;63.90;;;;;;5128639;27;20027;-65
2023/08/31 05:54:35;;;;;;;7.57;3.20;;;25.30;62.30;;;;;;5134683;27;20334;-64
2023/08/31 05:57:03;;;;;;;5.95;3.05;;;25.50;61.00;;;;;;5137681;27;20027;-65
2023/08/31 05:59:29;;;;;;;7.18;2.67;;;25.60;60.40;;;;;;5127081;27;20026;-65
2023/08/31 06:01:55;;;;;;;6.25;2.95;;;25.80;60.70;;;;;;5128939;27;20030;-67
2023/08/31 06:04:21;;;;;;;2.75;2.40;;;26.10;59.10;;;;;;5130433;27;20034;-68
2023/08/31 06:06:47;;;;;;;10.70;2.85;;;26.60;58.10;;;;;;5125857;27;20024;-66
2023/08/31 06:09:13;;;;;;;5.85;3.10;;;26.90;56.70;;;;;;5123287;27;20023;-66
2023/08/31 06:11:40;;;;;;;5.40;3.00;;;27.20;56.40;;;;;;5119262;27;20071;-68
2023/08/31 06:14:06;;;;;;;8.45;2.70;;;27.50;54.90;;;;;;5130493;27;20052;-71
2023/08/31 06:16:31;;;;;;;5.90;2.65;;;27.70;54.20;;;;;;5110549;27;20027;-66
2023/08/31 06:18:58;;;;;;;4.25;2.70;;;27.70;53.90;;;;;;5123591;27;20467;-66
2023/08/31 06:21:24;;;;;;;6.75;3.05;;;27.70;54.00;;;;;;5126027;27;20111;-68
2023/08/31 06:23:49;;;;;;;4.68;2.70;;;27.80;52.80;;;;;;5131809;27;20054;-68
2023/08/31 06:26:15;;;;;;;3.80;2.60;;;28.10;52.50;;;;;;5134362;27;20389;-69
2023/08/31 06:28:41;;;;;;;4.05;2.50;;;28.30;51.70;;;;;;5129947;27;20383;-71
2023/08/31 06:31:07;;;;;;;3.78;2.10;;;28.70;51.00;;;;;;5121769;27;20387;-69
2023/08/31 06:33:33;;;;;;;3.90;2.15;;;29.10;50.40;;;;;;5122064;27;20410;-70
2023/08/31 06:35:59;;;;;;;3.33;2.20;;;29.40;49.30;;;;;;5127798;27;20027;-72
2023/08/31 06:38:25;;;;;;;2.85;2.22;;;29.60;49.20;;;;;;5117718;27;20528;-68
2023/08/31 06:40:54;;;;;;;3.08;2.53;;;29.80;48.30;;;;;;5124262;27;20386;-68
2023/08/31 06:43:20;;;;;;;4.95;2.13;;;29.90;47.90;;;;;;5136932;27;20080;-68
2023/08/31 06:45:46;;;;;;;7.45;2.70;;;30.20;47.30;;;;;;5135263;27;20027;-69
2023/08/31 06:48:12;;;;;;;4.95;2.75;;;30.40;46.00;;;;;;5123667;27;20031;-70
2023/08/31 06:50:38;;;;;;;4.35;2.70;;;30.60;45.70;;;;;;5130652;27;20030;-68
2023/08/31 06:53:04;;;;;;;4.00;2.40;;;31.20;45.60;;;;;;5125777;27;20030;-69
2023/08/31 06:55:31;;;;;;;4.55;2.60;;;31.20;45.00;;;;;;5124714;27;20079;-69
2023/08/31 06:57:58;;;;;;;3.75;2.60;;;30.70;44.10;;;;;;5135202;27;20035;-68
2023/08/31 07:00:24;;;;;;;5.00;2.40;;;30.30;45.80;;;;;;5122353;27;20468;-68
2023/08/31 07:02:49;;;;;;;4.00;2.70;;;30.20;45.90;;;;;;5136744;27;20456;-67
2023/08/31 07:05:15;;;;;;;3.55;2.67;;;30.40;45.70;;;;;;5133488;27;20030;-71
2023/08/31 07:07:41;;;;;;;4.15;2.55;;;30.60;44.80;;;;;;5121894;27;20352;-71
2023/08/31 07:10:08;;;;;;;3.20;2.40;;;30.70;44.80;;;;;;5116212;28;20474;-71
2023/08/31 07:12:34;;;;;;;2.67;2.30;;;30.70;45.30;;;;;;5117167;27;20125;-71
2023/08/31 07:15:00;;;;;;;3.72;2.90;;;30.60;45.80;;;;;;5125802;27;20038;-70
2023/08/31 07:17:26;;;;;;;3.97;2.60;;;30.40;46.30;;;;;;5124446;27;20419;-71
2023/08/31 07:19:53;;;;;;;4.13;2.83;;;30.10;46.60;;;;;;5135193;27;20474;-71
2023/08/31 07:22:19;;;;;;;3.40;2.50;;;29.90;47.00;;;;;;5134665;27;20505;-71
2023/08/31 07:24:46;;;;;;;3.63;2.80;;;29.80;46.80;;;;;;5117539;27;20340;-71
2023/08/31 07:27:12;;;;;;;4.47;2.80;;;29.70;47.40;;;;;;5116969;28;20050;-71
2023/08/31 07:29:38;;;;;;;5.32;2.95;;;29.50;46.90;;;;;;5117386;27;20453;-70
2023/08/31 07:32:04;;;;;;;3.17;2.55;;;28.90;47.50;;;;;;5120251;27;20068;-70
2023/08/31 07:34:31;;;;;;;2.50;2.17;;;28.00;48.70;;;;;;5136653;27;20039;-70
2023/08/31 07:36:57;;;;;;;4.38;2.42;;;27.40;50.30;;;;;;5134679;27;20026;-69
2023/08/31 07:39:23;;;;;;;3.30;2.50;;;27.00;51.30;;;;;;5133460;27;20381;-68
2023/08/31 07:41:49;;;;;;;5.22;3.22;;;26.80;52.20;;;;;;5126540;27;20123;-68
2023/08/31 07:44:15;;;;;;;4.90;2.65;;;26.50;52.60;;;;;;5122966;28;20027;-68
2023/08/31 07:46:44;;;;;;;4.30;2.78;;;26.40;52.80;;;;;;5133032;27;20023;-71
2023/08/31 07:49:09;;;;;;;3.78;2.70;;;26.30;53.00;;;;;;5135691;27;20019;-68
2023/08/31 07:51:36;;;;;;;3.75;2.80;;;26.20;53.30;;;;;;5119947;27;20088;-67
2023/08/31 07:54:03;;;;;;;4.00;2.70;;;26.00;54.00;;;;;;5134551;28;20492;-70
2023/08/31 07:56:29;;;;;;;3.88;2.83;;;26.00;54.50;;;;;;5128597;27;20041;-70
2023/08/31 07:58:55;;;;;;;4.18;2.90;;;26.00;54.00;;;;;;5119113;27;20039;-68
2023/08/31 08:01:21;;;;;;;3.70;2.58;;;25.90;54.60;;;;;;5115733;28;20024;-69
2023/08/31 08:03:47;;;;;;;5.18;2.70;;;25.90;54.80;;;;;;5126870;27;20035;-69
2023/08/31 08:06:13;;;;;;;5.07;2.97;;;25.90;54.80;;;;;;5131345;27;20060;-69
2023/08/31 08:08:39;;;;;;;4.75;2.80;;;25.90;54.10;;;;;;5134504;27;20042;-70
2023/08/31 08:11:05;;;;;;;4.28;2.70;;;26.00;54.40;;;;;;5135987;27;20088;-69
2023/08/31 08:13:47;;;;;;;3.47;2.10;;;26.10;54.50;;;;;;5128853;28;20015;-70
2023/08/31 08:16:14;;;;;;;2.53;1.92;;;26.20;54.40;;;;;;5131434;28;20136;-69
2023/08/31 08:18:41;;;;;;;3.50;1.95;;;26.30;53.90;;;;;;5134623;27;20046;-71
2023/08/31 08:21:07;;;;;;;2.40;1.83;;;26.40;53.90;;;;;;5134651;27;20470;-70
2023/08/31 08:23:33;;;;;;;1.95;1.60;;;26.50;54.10;;;;;;5127260;27;20111;-69
2023/08/31 08:26:01;;;;;;;4.13;2.20;;;26.60;53.90;;;;;;5133472;27;20090;-70
2023/08/31 08:28:28;;;;;;;3.28;2.08;;;26.70;53.90;;;;;;5125393;28;20457;-69
2023/08/31 08:30:54;;;;;;;2.80;2.05;;;26.80;53.70;;;;;;5134757;27;20023;-69
2023/08/31 08:33:20;;;;;;;3.72;1.90;;;26.60;52.80;;;;;;5125930;28;20063;-70
2023/08/31 08:35:46;;;;;;;2.05;1.60;;;26.50;53.10;;;;;;5128516;28;20088;-70
2023/08/31 08:38:13;;;;;;;3.40;1.60;;;26.50;53.40;;;;;;5124493;28;20031;-70
2023/08/31 08:40:40;;;;;;;1.52;1.20;;;26.50;53.00;;;;;;5136276;28;20031;-70
2023/08/31 08:43:07;;;;;;;2.60;1.38;;;26.50;53.30;;;;;;5123353;28;20034;-70
2023/08/31 08:45:38;;;;;;;1.08;0.98;;;26.50;52.30;;;;;;5125291;27;20453;-70
2023/08/31 08:48:07;;;;;;;0.75;0.75;;;26.60;52.10;;;;;;5124756;28;20034;-70
2023/08/31 08:50:34;;;;;;;0.93;0.90;;;26.60;52.10;;;;;;5135580;27;20394;-69
2023/08/31 08:53:04;;;;;;;3.33;1.73;;;26.70;52.40;;;;;;5131506;27;20019;-68
2023/08/31 08:55:29;;;;;;;2.15;1.50;;;26.80;52.20;;;;;;5124332;28;20019;-67
2023/08/31 08:57:58;;;;;;;2.83;1.48;;;26.90;51.70;;;;;;5134663;27;20023;-67
2023/08/31 09:00:24;;;;;;;1.35;1.23;;;26.80;52.00;;;;;;5119347;27;20023;-66
2023/08/31 09:02:51;;;;;;;1.58;1.25;;;26.70;51.30;;;;;;5118678;28;20042;-67
2023/08/31 09:05:18;;;;;;;2.05;1.10;;;26.70;51.40;;;;;;5119073;28;20067;-69
2023/08/31 09:08:06;;;;;;;2.22;0.95;;;26.70;52.00;;;;;;5119259;27;20054;-68
2023/08/31 09:10:43;;;;;;;1.65;0.90;;;26.70;50.70;;;;;;5116636;27;20110;-68
2023/08/31 09:13:10;;;;;;;2.05;1.10;;;26.60;52.00;;;;;;5138015;27;20448;-67
2023/08/31 09:15:45;;;;;;;1.20;1.10;;;26.70;52.00;;;;;;5138598;27;20059;-68
2023/08/31 09:18:32;;;;;;;2.55;1.38;;;26.80;51.60;;;;;;5138548;27;20372;-69
2023/08/31 09:21:00;;;;;;;2.38;1.30;;;26.90;51.70;;;;;;5139146;27;20455;-69
2023/08/31 09:23:26;;;;;;;1.30;1.17;;;27.10;51.80;;;;;;5139017;27;20111;-68
2023/08/31 09:25:54;;;;;;;1.88;1.08;;;27.20;51.70;;;;;;5138970;27;20045;-67
2023/08/31 09:28:29;;;;;;;2.33;1.25;;;27.40;51.70;;;;;;5139021;27;20015;-67
2023/08/31 09:31:08;;;;;;;1.70;1.42;;;27.60;51.50;;;;;;5139019;27;20023;-67
2023/08/31 09:33:37;;;;;;;1.52;1.17;;;27.70;50.70;;;;;;5138393;27;20065;-67
2023/08/31 09:36:04;;;;;;;2.28;1.25;;;27.50;51.10;;;;;;5138513;27;20156;-67
2023/08/31 09:38:30;;;;;;;1.92;1.20;;;27.40;51.20;;;;;;5138436;27;20035;-68
2023/08/31 09:41:06;;;;;;;1.67;1.20;;;27.30;51.30;;;;;;5138981;27;20333;-68
2023/08/31 09:43:32;;;;;;;2.22;1.13;;;27.30;51.00;;;;;;5138917;27;20462;-67
2023/08/31 09:46:00;;;;;;;1.75;1.20;;;27.40;51.30;;;;;;5138632;27;20314;-68
2023/08/31 09:48:26;;;;;;;1.40;1.15;;;27.40;51.30;;;;;;5138863;27;20012;-68
2023/08/31 09:50:54;;;;;;;1.02;0.93;;;27.20;51.20;;;;;;5138277;27;20035;-69
2023/08/31 09:53:23;;;;;;;3.38;1.23;;;27.10;51.40;;;;;;5137161;27;20023;-67
2023/08/31 09:55:52;;;;;;;0.98;0.90;;;27.10;51.50;;;;;;5138736;27;20143;-67
2023/08/31 09:58:21;;;;;;;1.15;1.00;;;27.00;51.50;;;;;;5138678;27;20298;-66
2023/08/31 10:00:50;;;;;;;1.75;0.90;;;26.90;51.60;;;;;;5130235;27;20031;-67
2023/08/31 10:03:17;;;;;;;2.08;1.02;;;26.90;52.10;;;;;;5127805;27;20059;-67
2023/08/31 10:05:45;;;;;;;1.80;1.00;;;27.00;52.10;;;;;;5134639;27;20122;-69
2023/08/31 10:08:13;;;;;;;1.27;0.95;;;27.20;51.80;;;;;;5121816;27;20120;-67
2023/08/31 10:10:40;;;;;;;1.20;0.75;;;27.30;51.70;;;;;;5121328;27;20024;-65
2023/08/31 10:13:08;;;;;;;0.88;0.88;;;27.40;51.50;;;;;;5127119;27;20015;-68
2023/08/31 10:15:36;;;;;;;1.83;0.60;;;27.60;51.40;;;;;;5119332;27;20356;-66
2023/08/31 10:18:07;;;;;;;0.80;0.77;;;27.70;51.40;;;;;;5136647;27;20038;-67
2023/08/31 10:20:34;;;;;;;1.48;0.98;;;27.80;50.90;;;;;;5131808;27;20032;-68
2023/08/31 10:23:09;;;;;;;1.98;1.00;;;27.80;50.50;;;;;;5135194;27;20456;-68
2023/08/31 10:25:50;;;;;;;1.13;1.00;;;27.50;50.90;;;;;;5134233;27;20455;-68
2023/08/31 10:28:23;;;;;;;1.92;0.80;;;27.30;51.20;;;;;;5129030;27;20022;-67
2023/08/31 10:31:04;;;;;;;1.45;0.80;;;27.10;51.50;;;;;;5117530;28;20035;-68
2023/08/31 10:33:42;;;;;;;0.68;0.68;;;26.90;51.90;;;;;;5127560;27;20107;-68
2023/08/31 10:36:18;;;;;;;1.80;1.02;;;26.80;52.20;;;;;;5116813;28;20035;-71
2023/08/31 10:38:47;;;;;;;3.88;1.10;;;26.80;52.30;;;;;;5116485;28;20023;-72
2023/08/31 10:41:13;;;;;;;1.92;0.85;;;26.90;52.50;;;;;;5117256;28;20035;-72
2023/08/31 10:43:45;;;;;;;1.92;0.70;;;27.00;52.30;;;;;;5116789;28;20015;-72
2023/08/31 10:49:10;;;;;;;1.02;0.63;;;26.90;52.60;;;;;;5117391;28;20298;-70
2023/08/31 10:51:44;;;;;;;0.95;0.80;;;26.90;52.50;;;;;;5110444;28;20467;-69
2023/08/31 10:54:23;;;;;;;1.00;0.73;;;27.00;52.50;;;;;;5116458;28;20464;-70
2023/08/31 10:57:07;;;;;;;1.05;0.82;;;27.10;52.50;;;;;;5116418;28;20055;-70
2023/08/31 10:59:41;;;;;;;;;;;27.20;52.40;;;;;;5117414;28;20045;-70
2023/08/31 11:02:08;;;;;;;2.95;1.17;;;27.00;52.10;;;;;;5116537;28;19904;-70
2023/08/31 11:04:55;;;;;;;2.03;1.10;;;26.90;52.40;;;;;;5116180;28;20019;-70
2023/08/31 11:07:27;;;;;;;0.80;0.80;;;26.90;52.90;;;;;;5116784;28;20027;-70
2023/08/31 11:12:23;;;;;;;3.58;1.10;;;26.80;53.10;;;;;;5116615;28;20341;-70
2023/08/31 11:14:52;;;;;;;1.77;1.00;;;26.70;53.30;;;;;;5116350;28;20031;-70
2023/08/31 11:17:18;;;;;;;2.60;1.10;;;26.60;53.50;;;;;;5116621;28;20030;-70
2023/08/31 11:19:46;;;;;;;3.20;1.00;;;26.50;53.80;;;;;;5116293;28;20100;-70
2023/08/31 11:22:13;;;;;;;1.30;0.93;;;26.40;54.90;;;;;;5131266;27;20059;-70
2023/08/31 11:24:42;;;;;;;3.72;1.00;;;26.50;55.00;;;;;;5115885;28;20023;-71
2023/08/31 11:27:08;;;;;;;1.25;1.08;;;26.70;54.60;;;;;;5115835;28;20016;-70
2023/08/31 11:29:47;;;;;;;1.08;0.80;;;26.90;53.70;;;;;;5116415;28;20022;-70
2023/08/31 11:32:14;;;;;;;2.05;1.00;;;27.00;53.40;;;;;;5115528;28;20092;-70
2023/08/31 11:34:45;;;;;;;1.88;1.10;;;27.20;53.00;;;;;;5116117;28;20035;-71
2023/08/31 11:37:15;;;;;;;2.33;1.10;;;27.30;51.80;;;;;;5116256;28;20066;-70
2023/08/31 11:39:52;;;;;;;1.83;1.20;;;27.30;51.90;;;;;;5116157;28;20027;-70
2023/08/31 11:42:22;;;;;;;2.03;1.17;;;27.30;51.80;;;;;;5115980;28;20023;-70
2023/08/31 11:44:53;;;;;;;1.33;0.90;;;27.20;51.90;;;;;;5116441;28;20043;-70
2023/08/31 11:47:20;;;;;;;1.17;0.88;;;27.10;52.20;;;;;;5115904;28;20031;-70
2023/08/31 11:49:48;;;;;;;1.65;1.27;;;27.00;52.30;;;;;;5115795;28;20015;-70
2023/08/31 11:52:15;;;;;;;1.77;1.10;;;27.00;52.30;;;;;;5115456;28;20401;-70
2023/08/31 11:54:46;;;;;;;2.80;1.10;;;26.90;52.20;;;;;;5115847;28;20039;-70
2023/08/31 11:57:12;;;;;;;2.05;1.40;;;27.00;52.10;;;;;;5115409;28;20330;-70
2023/08/31 11:59:39;;;;;;;3.30;1.48;;;27.10;52.20;;;;;;5115544;28;20438;-70
2023/08/31 12:02:08;;;;;;;1.38;1.15;;;27.10;52.20;;;;;;5115742;28;20034;-71
2023/08/31 12:04:45;;;;;;;1.90;1.20;;;27.10;52.30;;;;;;5131485;28;20035;-71
2023/08/31 12:07:16;;;;;;;3.10;1.15;;;27.10;52.70;;;;;;5115558;28;20036;-71
2023/08/31 12:09:44;;;;;;;1.45;1.00;;;27.20;52.40;;;;;;5115743;28;20023;-71
2023/08/31 12:12:10;;;;;;;3.03;1.50;;;27.30;52.30;;;;;;5115304;28;20051;-70
2023/08/31 12:14:40;;;;;;;3.50;1.73;;;27.40;52.30;;;;;;5115340;28;20020;-71
2023/08/31 12:19:39;;;;;;;3.95;1.48;;;27.40;52.50;;;;;;5115942;28;20078;-71
2023/08/31 12:22:12;;;;;;;4.05;1.75;;;27.40;52.50;;;;;;5115680;28;20027;-71
2023/08/31 12:24:42;;;;;;;1.60;1.50;;;27.40;52.20;;;;;;5115635;28;20028;-71
2023/08/31 12:27:11;;;;;;;1.65;1.52;;;27.40;52.30;;;;;;5115876;28;20026;-71
2023/08/31 12:29:38;;;;;;;1.88;1.40;;;27.50;52.50;;;;;;5116091;28;20030;-71
2023/08/31 12:32:05;;;;;;;3.42;1.60;;;27.50;52.20;;;;;;5114143;28;20024;-71
2023/08/31 12:34:31;;;;;;;3.15;1.50;;;27.50;51.90;;;;;;5134072;27;20028;-71
2023/08/31 12:37:02;;;;;;;1.95;1.50;;;27.60;51.90;;;;;;5119472;28;20024;-71
2023/08/31 12:39:29;;;;;;;1.80;1.25;;;27.60;51.30;;;;;;5119432;28;20039;-71
2023/08/31 12:41:56;;;;;;;1.95;1.20;;;27.60;51.10;;;;;;5119100;27;20032;-71
2023/08/31 12:44:22;;;;;;;1.45;1.30;;;27.70;51.30;;;;;;5118801;28;20107;-71
2023/08/31 12:46:48;;;;;;;1.27;1.13;;;27.80;50.70;;;;;;5119008;28;20028;-71
2023/08/31 12:49:14;;;;;;;1.48;1.10;;;27.90;50.50;;;;;;5118573;28;20417;-71
2023/08/31 12:51:40;;;;;;;3.00;1.50;;;27.90;50.20;;;;;;5118827;28;20035;-71
2023/08/31 12:54:05;;;;;;;3.08;1.70;;;27.90;50.40;;;;;;5118792;28;20019;-71
2023/08/31 12:56:31;;;;;;;1.98;1.42;;;28.00;50.50;;;;;;5119117;28;20035;-71